You are not logged in, Click here to log in
英迪拉·甘地國際機場 DEL / VIDP 印度首都德裡
ICAO: VIDP Country: 印度首都德裡
Latitude: 28.5562 Longitude: 77.1
Total Arrivals: 16 Total Departures: 14
Latest Arrival: FS68 (HAAB-VIDP)ALAN. LIU Latest Departure: A9C48 (VIDP-ZBAA)ALAN. LIU
Scenery:
METAR : VIDP 190400Z 14009KT 2200 HZ FEW100 20/06 Q1015 NOSIG

英迪拉·甘地國際機場 DEL

You are accessing this site from IP address 35.175.113.29. Virtual Airline. CMS by phpVMS.Website designed by Zumeweb and edited by Theo Bearman.
There is 0 User(s) Online: | and 2 Guest(s) Online.
All information on this site is for fight simulation purposes only. This site is for flight logging for pilots of Virtual Airline&模擬飛行論壇 FlySim only.